Nearby AIRPORT Reports

 

KATT - Austin/Mabry, Texas, USA
Distance from station: NE 13mi, 20km
Updated: Sat, 10-Dec-2022 1:51am CST
Overcast
Overcast
 Wind from varies
Wind: varies 5 mph , 7 km/h
Temperature: 72°F , 22°C
Dew Point: 66°F , 19°C
Humidity: 83%
Barometer: 30.05 inHg , 1017.6 hPa
Clouds: Overcast
Visibility: 10 miles , 16 km
Cloud details: Mostly cloudy 1400 ft
Overcast 2100 ft
2022/12/10 07:51 KATT 100751Z AUTO VRB04KT 10SM BKN014 OVC021 22/19 A3005 RMK AO2 SLP165 T02170194
KAUS - Austin/Bergstrom, Texas, USA
Distance from station: E 15mi, 25km
Updated: Sat, 10-Dec-2022 1:53am CST
Overcast
Overcast
 Wind from S
Wind: S 12 mph , 19 km/h
Temperature: 70°F , 21°C
Dew Point: 68°F , 20°C
Humidity: 94%
Barometer: 30.04 inHg , 1017.3 hPa
Clouds: Overcast
Visibility: 10 miles , 16 km
Cloud details: Mostly cloudy 1500 ft
Overcast 2000 ft
2022/12/10 07:53 KAUS 100753Z 18010KT 10SM BKN015 OVC020 21/20 A3004 RMK AO2 SLP164 T02110200
 
KHYI - San Marcos, Texas, USA
Distance from station: S 23mi, 37km
Updated: Sat, 10-Dec-2022 1:56am CST
Overcast
Overcast
 Wind from S
Wind: S 14 mph , 22 km/h
Clouds: Overcast
Visibility: 10 miles , 16 km
Cloud details: Mostly cloudy 1700 ft
Overcast 5000 ft
2022/12/10 07:56 KHYI 100756Z AUTO 18012KT 10SM BKN017 OVC050 RMK AO2 SLPNO FZRANO $
KGTU - Georgetown, Texas, USA
Distance from station: NNE 36mi, 58km
Updated: Sat, 10-Dec-2022 1:56am CST
Light rain, Overcast
Light rain, Overcast
 Wind from S
Wind: S 8 mph , 13 km/h
Temperature: 72°F , 22°C
Dew Point: 66°F , 19°C
Humidity: 83%
Barometer: 30.06 inHg , 1017.9 hPa
Summary: Light rain
Clouds: Overcast
Visibility: 10 miles , 16 km
Cloud details: Mostly cloudy 1300 ft
Overcast 2300 ft
2022/12/10 07:56 KGTU 100756Z AUTO 17007KT 10SM -RA BKN013 OVC023 22/19 A3006 RMK AO2 RAB50 SLP175 P0000 T02170189
 
KBMQ - Burnet, Texas, USA
Distance from station: NNW 40mi, 65km
Updated: Sat, 10-Dec-2022 1:53am CST
Overcast
Overcast
 Wind from S
Wind: S 8 mph , 13 km/h
Temperature: 70°F , 21°C
Dew Point: 64°F , 18°C
Humidity: 83%
Barometer: 30.07 inHg , 1018.3 hPa
Clouds: Overcast
Visibility: 10 miles , 16 km
Cloud details: Overcast 1600 ft
2022/12/10 07:53 KBMQ 100753Z AUTO 18007KT 10SM OVC016 21/18 A3007 RMK AO2 SLP167 T02060183
KT82 - Fredericksburg, Texas, USA
Distance from station: W 59mi, 94km
Updated: Sat, 10-Dec-2022 2:35am CST
Overcast
Overcast
 Wind from S
Wind: S 10 mph , 17 km/h
Temperature: 68°F , 20°C
Dew Point: 63°F , 17°C
Humidity: 83%
Barometer: 30.05 inHg , 1017.6 hPa
Clouds: Overcast
Visibility: 10 miles , 16 km
Cloud details: Overcast 1100 ft
2022/12/10 08:35 KT82 100835Z AUTO 19009KT 10SM OVC011 20/17 A3005 RMK AO2 T01970174
 
KGTU - Georgetown, Texas, USA
Distance from station: NNE 36mi, 58km
Updated: Sat, 10-Dec-2022 1:56am CST
Light rain, Overcast
Light rain, Overcast
 Wind from S
Wind: S 8 mph , 13 km/h
Temperature: 72°F , 22°C
Dew Point: 66°F , 19°C
Humidity: 83%
Barometer: 30.06 inHg , 1017.9 hPa
Summary: Light rain
Clouds: Overcast
Visibility: 10 miles , 16 km
Cloud details: Mostly cloudy 1300 ft
Overcast 2300 ft
2022/12/10 07:56 KGTU 100756Z AUTO 17007KT 10SM -RA BKN013 OVC023 22/19 A3006 RMK AO2 RAB50 SLP175 P0000 T02170189
KAQO - Llano, Texas, USA
Distance from station: NW 59mi, 95km
Updated: Sat, 10-Dec-2022 2:35am CST
Overcast
Overcast
 Wind from SE
Wind: SE 3 mph , 6 km/h
Temperature: 68°F , 20°C
Dew Point: 64°F , 18°C
Humidity: 88%
Barometer: 30.04 inHg , 1017.3 hPa
Clouds: Overcast
Visibility: 8 miles , 13 km
Cloud details: Partly cloudy 2600 ft
Partly cloudy 3400 ft
Overcast 6000 ft
2022/12/10 08:35 KAQO 100835Z AUTO 14003KT 8SM SCT026 SCT034 OVC060 20/18 A3004 RMK AO2
 
KERV - Kerrville, Texas, USA
Distance from station: WSW 70mi, 113km
Updated: Sat, 10-Dec-2022 2:35am CST
Overcast
Overcast
 Wind from S
Wind: S 16 mph , 26 km/h, Gust: 24 mph , 39 km/h
Temperature: 68°F , 20°C
Dew Point: 64°F , 18°C
Humidity: 88%
Barometer: 30.05 inHg , 1017.6 hPa
Clouds: Overcast
Visibility: 10 miles , 16 km
Cloud details: Overcast 1200 ft
2022/12/10 08:35 KERV 100835Z AUTO 17014G21KT 10SM OVC012 20/18 A3005 RMK AO2 T01970176
KSAT - San Antonio, Texas, USA
Distance from station: SW 56mi, 91km
Updated: Sat, 10-Dec-2022 1:51am CST
Overcast
Overcast
 Wind from SSE
Wind: SSE 8 mph , 13 km/h
Temperature: 70°F , 21°C
Dew Point: 64°F , 18°C
Humidity: 83%
Barometer: 30.05 inHg , 1017.6 hPa
Clouds: Overcast
Visibility: 10 miles , 16 km
Cloud details: Mostly cloudy 1100 ft
Overcast 5500 ft
2022/12/10 07:51 KSAT 100751Z 15007KT 10SM BKN011 OVC055 21/18 A3005 RMK AO2 SLP159 T02060183
 
K11R - Brenham, Texas, USA
Distance from station: E 94mi, 151km
Updated: Sat, 10-Dec-2022 2:35am CST
Mostly cloudy
Mostly cloudy
 Wind from SSE
Wind: SSE 3 mph , 6 km/h
Temperature: 70°F , 21°C
Dew Point: 68°F , 20°C
Humidity: 94%
Clouds: Mostly cloudy
Visibility: 10 miles , 16 km
Cloud details: Mostly cloudy 1400 ft
2022/12/10 08:35 K11R 100835Z AUTO 16003KT 10SM BKN014 21/20 RMK AO2 T02120200
KTME - Houston Exec, Texas, USA
Distance from station: ESE 125mi, 201km
Updated: Sat, 10-Dec-2022 2:35am CST
Mist, Overcast
Mist, Overcast
 Wind from S
Wind: S 7 mph , 11 km/h
Temperature: 72°F , 22°C
Dew Point: 72°F , 22°C
Humidity: 100%
Barometer: 30.08 inHg , 1018.6 hPa
Summary: Mist
Clouds: Overcast
Visibility: 4 miles , 6 km
Cloud details: Mostly cloudy 400 ft
Overcast 700 ft
2022/12/10 08:35 KTME 100835Z AUTO 17006KT 4SM BR BKN004 OVC007 22/22 A3008 RMK AO2